Terminal Aerodrome Forecast
Issued by NWS Jacksonville, FL

Home | Current Version | Previous Version | Text Only | Print | Product List | Glossary On
Versions: 1 2 3 4 5 6 7 8 9 10 11 12 13 14 15 16 17 18 19 20 21 22
000
FTUS42 KJAX 022329 AAA
TAFSSI
TAF AMD
KSSI 022329Z 0223/0324 14011KT P6SM VCTS SCT050CB BKN150 BKN250
     FM030200 19007KT P6SM SCT060 BKN250
     FM030900 21005KT P6SM BKN015
     FM031400 25010KT P6SM SCT035 BKN050
     FM031800 22012KT P6SM VCTS BKN040CB=

USA.gov is the U.S. government's official web portal to all federal, state and local government web resources and services.